createdAt,value
2022-10-31T00:01:42.705Z,98804.00
2022-10-31T00:04:11.858Z,98809.00
2022-10-31T00:06:40.973Z,98809.00
2022-10-31T00:09:12.215Z,98811.00
2022-10-31T00:11:41.378Z,98812.00
2022-10-31T00:14:10.680Z,98816.00
2022-10-31T00:16:39.879Z,98819.00
2022-10-31T00:19:10.337Z,98825.00
2022-10-31T00:21:39.610Z,98830.00
2022-10-31T00:24:09.189Z,98835.00
2022-10-31T00:26:38.275Z,98835.00
2022-10-31T00:29:07.518Z,98830.00
2022-10-31T00:31:36.578Z,98836.00
2022-10-31T00:34:05.713Z,98833.00
2022-10-31T00:36:34.854Z,98838.00
2022-10-31T00:39:03.981Z,98833.00
2022-10-31T00:41:33.058Z,98837.00
2022-10-31T00:44:02.206Z,98846.00
2022-10-31T00:46:31.512Z,98847.00
2022-10-31T00:49:00.634Z,98846.00
2022-10-31T00:51:29.684Z,98850.00
2022-10-31T00:53:58.709Z,98847.00
2022-10-31T00:56:27.752Z,98861.00
2022-10-31T00:58:56.948Z,98855.00
2022-10-31T01:01:26.127Z,98850.00
2022-10-31T01:03:55.236Z,98857.00
2022-10-31T01:06:24.351Z,98854.00
2022-10-31T01:08:53.372Z,98859.00
2022-10-31T01:11:25.429Z,98860.00
2022-10-31T01:13:56.278Z,98864.00
2022-10-31T01:16:31.435Z,98861.00
2022-10-31T01:19:00.720Z,98873.00
2022-10-31T01:21:31.979Z,98868.00
2022-10-31T01:24:01.481Z,98866.00
2022-10-31T01:26:33.958Z,98871.00
2022-10-31T01:29:07.862Z,98861.00
2022-10-31T01:31:41.594Z,98879.00
2022-10-31T01:34:18.691Z,98869.00
2022-10-31T01:36:52.987Z,98882.00
2022-10-31T01:39:22.285Z,98888.00
2022-10-31T01:42:00.394Z,98883.00
2022-10-31T01:44:33.452Z,98885.00
2022-10-31T01:47:21.733Z,98880.00
2022-10-31T01:50:26.001Z,98890.00
2022-10-31T01:53:00.103Z,98891.00
2022-10-31T01:55:40.967Z,98896.00
2022-10-31T01:58:16.881Z,98898.00
2022-10-31T02:00:56.691Z,98905.00
2022-10-31T02:03:28.651Z,98908.00
2022-10-31T02:06:04.999Z,98908.00
2022-10-31T02:08:37.217Z,98906.00
2022-10-31T02:11:16.699Z,98914.00
2022-10-31T02:13:45.991Z,98911.00
2022-10-31T02:16:15.679Z,98913.00
2022-10-31T02:18:44.864Z,98918.00
2022-10-31T02:21:26.327Z,98916.00
2022-10-31T02:24:22.091Z,98909.00
2022-10-31T02:27:39.071Z,98910.00
2022-10-31T02:30:30.316Z,98902.00
2022-10-31T02:33:35.545Z,98911.00
2022-10-31T02:36:24.792Z,98903.00
2022-10-31T02:39:14.934Z,98902.00
2022-10-31T02:41:57.634Z,98901.00
2022-10-31T02:45:49.477Z,98904.00
2022-10-31T02:48:28.639Z,98892.00
2022-10-31T02:51:07.845Z,98896.00
2022-10-31T02:53:39.548Z,98898.00
2022-10-31T02:56:21.448Z,98896.00
2022-10-31T02:59:07.361Z,98895.00
2022-10-31T03:01:54.578Z,98893.00
2022-10-31T03:05:24.011Z,98893.00
2022-10-31T03:08:32.329Z,98891.00
2022-10-31T03:11:09.068Z,98884.00
2022-10-31T03:14:08.316Z,98898.00
2022-10-31T03:16:52.419Z,98891.00
2022-10-31T03:19:56.856Z,98886.00
2022-10-31T03:22:33.777Z,98891.00
2022-10-31T03:25:07.186Z,98886.00
2022-10-31T03:27:41.825Z,98875.00
2022-10-31T03:30:12.057Z,98869.00
2022-10-31T03:33:12.078Z,98871.00
2022-10-31T03:35:47.383Z,98866.00
2022-10-31T03:38:17.983Z,98862.00
2022-10-31T03:40:53.942Z,98864.00
2022-10-31T03:43:32.420Z,98858.00
2022-10-31T03:46:02.521Z,98853.00
2022-10-31T03:48:31.963Z,98850.00
2022-10-31T03:51:17.342Z,98835.00
2022-10-31T03:54:41.344Z,98837.00
2022-10-31T03:57:44.038Z,98833.00
2022-10-31T04:00:16.839Z,98826.00
2022-10-31T04:03:30.617Z,98822.00
2022-10-31T04:06:06.721Z,98825.00
2022-10-31T04:08:54.828Z,98820.00
2022-10-31T04:11:29.777Z,98818.00
2022-10-31T04:14:01.334Z,98816.00
2022-10-31T04:16:30.922Z,98803.00
2022-10-31T04:19:00.253Z,98807.00
2022-10-31T04:21:33.245Z,98807.00
2022-10-31T04:24:02.444Z,98799.00
2022-10-31T04:26:31.510Z,98787.00
2022-10-31T04:29:00.579Z,98794.00
2022-10-31T04:31:29.780Z,98797.00
2022-10-31T04:33:58.884Z,98785.00
2022-10-31T04:36:28.010Z,98785.00
2022-10-31T04:38:57.283Z,98788.00
2022-10-31T04:41:26.504Z,98777.00
2022-10-31T04:43:56.279Z,98778.00
2022-10-31T04:46:26.072Z,98780.00
2022-10-31T04:48:55.180Z,98773.00
2022-10-31T04:51:24.520Z,98759.00
2022-10-31T04:53:53.697Z,98758.00
2022-10-31T04:56:22.805Z,98752.00
2022-10-31T04:58:52.013Z,98752.00
2022-10-31T05:01:21.273Z,98755.00
2022-10-31T05:03:50.464Z,98745.00
2022-10-31T05:06:19.743Z,98745.00
2022-10-31T05:08:48.834Z,98746.00
2022-10-31T05:11:17.942Z,98745.00
2022-10-31T05:13:47.093Z,98739.00
2022-10-31T05:16:16.392Z,98738.00
2022-10-31T05:18:48.130Z,98743.00
2022-10-31T05:21:17.264Z,98735.00
2022-10-31T05:23:48.509Z,98730.00
2022-10-31T05:26:17.832Z,98729.00
2022-10-31T05:28:46.956Z,98733.00
2022-10-31T05:31:16.108Z,98730.00
2022-10-31T05:33:45.240Z,98723.00
2022-10-31T05:36:14.380Z,98728.00
2022-10-31T05:38:43.474Z,98723.00
2022-10-31T05:41:12.747Z,98711.00
2022-10-31T05:43:43.085Z,98710.00
2022-10-31T05:46:12.207Z,98699.00
2022-10-31T05:48:41.370Z,98701.00
2022-10-31T05:51:10.521Z,98698.00
2022-10-31T05:53:39.753Z,98693.00
2022-10-31T05:56:09.235Z,98689.00
2022-10-31T05:58:38.451Z,98688.00
2022-10-31T06:01:07.986Z,98687.00
2022-10-31T06:03:37.191Z,98680.00
2022-10-31T06:06:06.640Z,98672.00
2022-10-31T06:08:35.877Z,98664.00
2022-10-31T06:11:05.004Z,98662.00
2022-10-31T06:13:34.298Z,98656.00
2022-10-31T06:16:03.475Z,98656.00
2022-10-31T06:18:32.572Z,98652.00
2022-10-31T06:21:01.748Z,98652.00
2022-10-31T06:23:30.893Z,98643.00
2022-10-31T06:26:00.009Z,98645.00
2022-10-31T06:28:29.187Z,98642.00
2022-10-31T06:30:58.386Z,98642.00
2022-10-31T06:33:27.549Z,98634.00
2022-10-31T06:35:56.769Z,98631.00
2022-10-31T06:38:27.219Z,98627.00
2022-10-31T06:40:57.241Z,98622.00
2022-10-31T06:43:27.138Z,98618.00
2022-10-31T06:45:56.273Z,98609.00
2022-10-31T06:48:26.164Z,98612.00
2022-10-31T06:50:59.525Z,98606.00
2022-10-31T06:53:33.489Z,98606.00
2022-10-31T06:56:02.740Z,98605.00
2022-10-31T06:58:32.052Z,98601.00
2022-10-31T07:01:04.670Z,98602.00
2022-10-31T07:03:33.994Z,98601.00
2022-10-31T07:06:03.216Z,98603.00
2022-10-31T07:08:32.389Z,98597.00
2022-10-31T07:11:01.576Z,98604.00
2022-10-31T07:13:30.700Z,98599.00
2022-10-31T07:16:08.554Z,98601.00
2022-10-31T07:18:37.939Z,98599.00
2022-10-31T07:21:07.682Z,98591.00
2022-10-31T07:23:36.935Z,98598.00
2022-10-31T07:26:07.094Z,98590.00
2022-10-31T07:28:36.226Z,98588.00
2022-10-31T07:31:06.595Z,98588.00
2022-10-31T07:33:35.731Z,98586.00
2022-10-31T07:36:05.091Z,98588.00
2022-10-31T07:38:34.261Z,98582.00
2022-10-31T07:41:03.895Z,98587.00
2022-10-31T07:43:33.795Z,98582.00
2022-10-31T07:46:02.863Z,98586.00
2022-10-31T07:48:31.946Z,98588.00
2022-10-31T07:51:01.047Z,98593.00
2022-10-31T07:53:30.194Z,98582.00
2022-10-31T07:55:59.245Z,98577.00
2022-10-31T07:58:28.357Z,98583.00
2022-10-31T08:00:57.528Z,98578.00
2022-10-31T08:03:26.933Z,98575.00
2022-10-31T08:05:56.009Z,98579.00
2022-10-31T08:08:26.101Z,98580.00
2022-10-31T08:10:55.173Z,98580.00
2022-10-31T08:13:25.394Z,98583.00
2022-10-31T08:15:55.719Z,98584.00
2022-10-31T08:18:25.818Z,98585.00
2022-10-31T08:20:56.157Z,98582.00
2022-10-31T08:23:25.206Z,98580.00
2022-10-31T08:25:54.305Z,98584.00
2022-10-31T08:28:23.349Z,98585.00
2022-10-31T08:30:52.425Z,98579.00
2022-10-31T08:33:22.155Z,98579.00
2022-10-31T08:35:51.654Z,98585.00
2022-10-31T08:38:21.474Z,98583.00
2022-10-31T08:40:52.005Z,98582.00
2022-10-31T08:43:21.283Z,98581.00
2022-10-31T08:45:56.288Z,98578.00
2022-10-31T08:48:25.498Z,98586.00
2022-10-31T08:51:00.155Z,98585.00
2022-10-31T08:53:29.853Z,98584.00
2022-10-31T08:55:59.453Z,98588.00
2022-10-31T08:58:29.076Z,98583.00
2022-10-31T09:01:01.377Z,98586.00
2022-10-31T09:03:33.978Z,98581.00
2022-10-31T09:06:07.673Z,98586.00
2022-10-31T09:08:37.611Z,98592.00
2022-10-31T09:11:08.474Z,98596.00
2022-10-31T09:13:41.136Z,98591.00
2022-10-31T09:16:10.650Z,98593.00
2022-10-31T09:18:39.785Z,98594.00
2022-10-31T09:21:09.729Z,98601.00
2022-10-31T09:23:38.848Z,98600.00
2022-10-31T09:26:08.475Z,98600.00
2022-10-31T09:28:37.727Z,98609.00
2022-10-31T09:31:06.912Z,98606.00
2022-10-31T09:33:35.973Z,98608.00
2022-10-31T09:36:05.213Z,98614.00
2022-10-31T09:38:34.335Z,98615.00
2022-10-31T09:41:57.143Z,98614.00
2022-10-31T09:45:05.160Z,98621.00
2022-10-31T09:48:06.118Z,98623.00
2022-10-31T09:51:00.216Z,98631.00
2022-10-31T09:54:23.661Z,98624.00
2022-10-31T09:56:53.268Z,98634.00
2022-10-31T09:59:36.393Z,98635.00
2022-10-31T10:02:44.234Z,98640.00
2022-10-31T10:05:30.046Z,98638.00
2022-10-31T10:08:21.921Z,98639.00
2022-10-31T10:11:17.038Z,98650.00
2022-10-31T10:14:14.534Z,98654.00
2022-10-31T10:17:03.061Z,98656.00
2022-10-31T10:20:02.176Z,98653.00
2022-10-31T10:23:09.058Z,98655.00
2022-10-31T10:25:43.556Z,98661.00
2022-10-31T10:28:24.089Z,98657.00
2022-10-31T10:31:15.538Z,98660.00
2022-10-31T10:34:21.105Z,98672.00
2022-10-31T10:36:57.036Z,98675.00
2022-10-31T10:39:38.993Z,98668.00
2022-10-31T10:42:35.090Z,98660.00
2022-10-31T10:45:38.554Z,98671.00
2022-10-31T10:48:26.399Z,98675.00
2022-10-31T10:50:55.825Z,98671.00
2022-10-31T10:54:09.544Z,98681.00
2022-10-31T10:56:59.148Z,98677.00
2022-10-31T10:59:29.450Z,98685.00
2022-10-31T11:01:58.599Z,98691.00
2022-10-31T11:04:38.649Z,98688.00
2022-10-31T11:07:13.839Z,98690.00
2022-10-31T11:09:43.177Z,98689.00
2022-10-31T11:12:31.417Z,98689.00
2022-10-31T11:15:30.194Z,98694.00
2022-10-31T11:18:00.277Z,98692.00
2022-10-31T11:20:38.760Z,98696.00
2022-10-31T11:23:23.685Z,98687.00
2022-10-31T11:26:05.873Z,98692.00
2022-10-31T11:28:39.365Z,98692.00
2022-10-31T11:31:18.219Z,98686.00
2022-10-31T11:33:48.952Z,98687.00
2022-10-31T11:36:45.305Z,98693.00
2022-10-31T11:39:25.231Z,98694.00
2022-10-31T11:41:57.406Z,98691.00
2022-10-31T11:44:32.930Z,98695.00
2022-10-31T11:47:09.842Z,98700.00
2022-10-31T11:49:51.504Z,98700.00
2022-10-31T11:52:42.622Z,98700.00
2022-10-31T11:55:41.848Z,98695.00
2022-10-31T11:58:27.026Z,98710.00
2022-10-31T12:00:59.337Z,98718.00
2022-10-31T12:04:00.385Z,98723.00
2022-10-31T12:06:39.726Z,98724.00
2022-10-31T12:09:28.083Z,98731.00
2022-10-31T12:12:11.941Z,98729.00
2022-10-31T12:15:35.060Z,98739.00
2022-10-31T12:18:46.544Z,98745.00
2022-10-31T12:21:33.189Z,98748.00
2022-10-31T12:24:46.621Z,98756.00
2022-10-31T12:28:16.763Z,98763.00
2022-10-31T12:31:23.302Z,98766.00
2022-10-31T12:33:58.171Z,98768.00
2022-10-31T12:36:39.009Z,98769.00
2022-10-31T12:39:39.249Z,98775.00
2022-10-31T12:42:37.372Z,98779.00
2022-10-31T12:45:40.301Z,98778.00
2022-10-31T12:48:48.484Z,98785.00
2022-10-31T12:51:43.893Z,98779.00
2022-10-31T12:54:49.077Z,98785.00
2022-10-31T12:57:41.109Z,98787.00
2022-10-31T13:00:20.455Z,98806.00
2022-10-31T13:03:24.140Z,98805.00
2022-10-31T13:06:05.691Z,98802.00
2022-10-31T13:09:00.170Z,98807.00
2022-10-31T13:12:03.528Z,98814.00
2022-10-31T13:14:47.110Z,98818.00
2022-10-31T13:17:44.267Z,98826.00
2022-10-31T13:20:38.122Z,98824.00
2022-10-31T13:27:00.492Z,98825.00
2022-10-31T13:30:15.521Z,98836.00
2022-10-31T13:33:02.324Z,98835.00
2022-10-31T13:36:07.406Z,98838.00
2022-10-31T13:39:28.880Z,98843.00
2022-10-31T13:42:12.311Z,98839.00
2022-10-31T13:44:43.349Z,98840.00
2022-10-31T13:47:29.956Z,98845.00
2022-10-31T13:50:26.260Z,98848.00
2022-10-31T13:53:16.430Z,98847.00
2022-10-31T13:56:30.128Z,98857.00
2022-10-31T13:59:19.214Z,98860.00
2022-10-31T14:01:58.341Z,98853.00
2022-10-31T14:04:51.256Z,98864.00
2022-10-31T14:07:24.731Z,98867.00
2022-10-31T14:10:02.659Z,98865.00
2022-10-31T14:12:45.988Z,98867.00
2022-10-31T14:15:20.128Z,98870.00
2022-10-31T14:18:25.063Z,98876.00
2022-10-31T14:20:54.229Z,98866.00
2022-10-31T14:23:42.519Z,98867.00
2022-10-31T14:26:28.978Z,98870.00
2022-10-31T14:29:18.958Z,98870.00
2022-10-31T14:31:57.533Z,98873.00
2022-10-31T14:34:41.834Z,98861.00
2022-10-31T14:37:42.168Z,98863.00
2022-10-31T14:40:29.684Z,98872.00
2022-10-31T14:43:36.705Z,98876.00
2022-10-31T14:46:49.107Z,98881.00
2022-10-31T14:49:56.979Z,98878.00
2022-10-31T14:52:26.067Z,98880.00
2022-10-31T14:55:00.828Z,98880.00
2022-10-31T14:57:38.390Z,98892.00
2022-10-31T15:00:20.561Z,98886.00
2022-10-31T15:03:14.265Z,98885.00
2022-10-31T15:05:55.404Z,98895.00
2022-10-31T15:08:38.149Z,98895.00
2022-10-31T15:11:24.480Z,98895.00
2022-10-31T15:14:04.319Z,98896.00
2022-10-31T15:16:38.885Z,98901.00
2022-10-31T15:19:25.221Z,98898.00
2022-10-31T15:21:57.816Z,98901.00
2022-10-31T15:24:37.491Z,98903.00
2022-10-31T15:27:07.351Z,98904.00
2022-10-31T15:29:36.382Z,98902.00
2022-10-31T15:32:24.782Z,98901.00
2022-10-31T15:34:56.220Z,98902.00
2022-10-31T15:37:28.008Z,98906.00
2022-10-31T15:39:57.144Z,98905.00
2022-10-31T15:42:41.688Z,98904.00
2022-10-31T15:45:14.421Z,98904.00
2022-10-31T15:48:02.299Z,98899.00
2022-10-31T15:50:42.296Z,98914.00
2022-10-31T15:53:36.967Z,98910.00
2022-10-31T15:56:13.115Z,98910.00
2022-10-31T15:58:53.154Z,98914.00
2022-10-31T16:01:36.301Z,98914.00
2022-10-31T16:04:26.265Z,98913.00
2022-10-31T16:07:21.828Z,98917.00
2022-10-31T16:10:02.018Z,98923.00
2022-10-31T16:12:48.118Z,98920.00
2022-10-31T16:15:21.580Z,98913.00
2022-10-31T16:17:57.921Z,98912.00
2022-10-31T16:20:34.082Z,98919.00
2022-10-31T16:23:03.655Z,98914.00
2022-10-31T16:25:40.588Z,98907.00
2022-10-31T16:28:28.337Z,98911.00
2022-10-31T16:31:00.984Z,98916.00
2022-10-31T16:33:39.087Z,98916.00
2022-10-31T16:36:41.603Z,98913.00
2022-10-31T16:39:11.643Z,98904.00
2022-10-31T16:41:46.626Z,98907.00
2022-10-31T16:44:28.783Z,98908.00
2022-10-31T16:47:19.692Z,98904.00
2022-10-31T16:49:52.220Z,98912.00
2022-10-31T16:52:21.677Z,98903.00
2022-10-31T16:54:50.818Z,98906.00
2022-10-31T16:57:31.343Z,98899.00
2022-10-31T17:00:00.774Z,98902.00
2022-10-31T17:02:30.765Z,98903.00
2022-10-31T17:04:59.855Z,98904.00
2022-10-31T17:07:28.882Z,98899.00
2022-10-31T17:09:58.369Z,98903.00
2022-10-31T17:12:30.063Z,98903.00
2022-10-31T17:14:59.457Z,98905.00
2022-10-31T17:17:28.582Z,98895.00
2022-10-31T17:19:57.670Z,98898.00
2022-10-31T17:22:28.942Z,98891.00
2022-10-31T17:24:58.047Z,98885.00
2022-10-31T17:27:27.090Z,98892.00
2022-10-31T17:29:56.150Z,98889.00
2022-10-31T17:32:25.192Z,98883.00
2022-10-31T17:34:54.230Z,98887.00
2022-10-31T17:37:23.288Z,98886.00
2022-10-31T17:39:52.380Z,98884.00
2022-10-31T17:42:21.433Z,98884.00
2022-10-31T17:44:50.875Z,98882.00
2022-10-31T17:47:20.057Z,98883.00
2022-10-31T17:49:49.165Z,98880.00
2022-10-31T17:52:18.314Z,98882.00
2022-10-31T17:54:47.713Z,98880.00
2022-10-31T17:57:17.144Z,98871.00
2022-10-31T17:59:46.202Z,98874.00
2022-10-31T18:02:15.439Z,98858.00
2022-10-31T18:04:44.661Z,98861.00
2022-10-31T18:07:13.844Z,98863.00
2022-10-31T18:09:42.882Z,98857.00
2022-10-31T18:12:11.985Z,98856.00
2022-10-31T18:14:45.881Z,98855.00
2022-10-31T18:17:17.301Z,98852.00
2022-10-31T18:19:46.886Z,98848.00
2022-10-31T18:22:15.930Z,98845.00
2022-10-31T18:24:44.980Z,98847.00
2022-10-31T18:27:14.037Z,98837.00
2022-10-31T18:29:43.106Z,98837.00
2022-10-31T18:32:12.195Z,98830.00
2022-10-31T18:34:41.359Z,98827.00
2022-10-31T18:37:10.481Z,98829.00
2022-10-31T18:39:39.652Z,98818.00
2022-10-31T18:42:08.724Z,98817.00
2022-10-31T18:44:39.137Z,98817.00
2022-10-31T18:47:08.303Z,98818.00
2022-10-31T18:49:37.590Z,98809.00
2022-10-31T18:52:06.755Z,98812.00
2022-10-31T18:54:35.878Z,98810.00
2022-10-31T18:57:05.147Z,98809.00
2022-10-31T18:59:34.235Z,98806.00
2022-10-31T19:02:03.557Z,98813.00
2022-10-31T19:04:32.741Z,98806.00
2022-10-31T19:07:01.832Z,98806.00
2022-10-31T19:09:32.708Z,98812.00
2022-10-31T19:12:01.829Z,98814.00
2022-10-31T19:14:30.919Z,98809.00
2022-10-31T19:17:02.267Z,98803.00
2022-10-31T19:19:31.818Z,98793.00
2022-10-31T19:22:02.695Z,98801.00
2022-10-31T19:24:31.738Z,98803.00
2022-10-31T19:27:01.619Z,98793.00
2022-10-31T19:29:31.447Z,98803.00
2022-10-31T19:32:00.498Z,98794.00
2022-10-31T19:34:29.518Z,98793.00
2022-10-31T19:36:58.636Z,98791.00
2022-10-31T19:39:28.179Z,98800.00
2022-10-31T19:41:57.276Z,98796.00
2022-10-31T19:44:26.455Z,98784.00
2022-10-31T19:46:55.504Z,98792.00
2022-10-31T19:49:24.991Z,98797.00
2022-10-31T19:51:54.101Z,98794.00
2022-10-31T19:54:23.819Z,98786.00
2022-10-31T19:56:53.067Z,98782.00
2022-10-31T19:59:22.549Z,98797.00
2022-10-31T20:01:51.668Z,98794.00
2022-10-31T20:04:20.867Z,98787.00
2022-10-31T20:06:49.932Z,98782.00
2022-10-31T20:09:19.654Z,98784.00
2022-10-31T20:11:49.291Z,98785.00
2022-10-31T20:14:20.152Z,98782.00
2022-10-31T20:16:49.282Z,98784.00
2022-10-31T20:19:18.341Z,98780.00
2022-10-31T20:21:47.559Z,98778.00
2022-10-31T20:24:17.086Z,98776.00
2022-10-31T20:26:46.138Z,98775.00
2022-10-31T20:29:17.192Z,98770.00
2022-10-31T20:31:48.189Z,98771.00
2022-10-31T20:34:17.854Z,98771.00
2022-10-31T20:36:47.574Z,98768.00
2022-10-31T20:39:16.678Z,98781.00
2022-10-31T20:41:45.791Z,98772.00
2022-10-31T20:44:15.349Z,98776.00
2022-10-31T20:46:44.578Z,98772.00
2022-10-31T20:49:13.935Z,98779.00
2022-10-31T20:51:43.095Z,98774.00
2022-10-31T20:54:16.193Z,98772.00
2022-10-31T20:56:45.445Z,98782.00
2022-10-31T20:59:16.090Z,98783.00
2022-10-31T21:01:45.412Z,98784.00
2022-10-31T21:04:14.780Z,98781.00
2022-10-31T21:06:49.084Z,98785.00
2022-10-31T21:09:19.087Z,98779.00
2022-10-31T21:11:48.222Z,98783.00
2022-10-31T21:14:17.319Z,98783.00
2022-10-31T21:16:46.722Z,98786.00
2022-10-31T21:19:15.855Z,98778.00
2022-10-31T21:21:45.043Z,98773.00
2022-10-31T21:24:21.316Z,98778.00
2022-10-31T21:26:53.353Z,98778.00
2022-10-31T21:29:23.863Z,98776.00
2022-10-31T21:31:53.255Z,98780.00
2022-10-31T21:34:22.385Z,98776.00
2022-10-31T21:36:51.517Z,98786.00
2022-10-31T21:39:20.843Z,98781.00
2022-10-31T21:41:49.975Z,98793.00
2022-10-31T21:44:20.208Z,98793.00
2022-10-31T21:46:49.586Z,98797.00
2022-10-31T21:49:18.622Z,98794.00
2022-10-31T21:51:48.561Z,98801.00
2022-10-31T21:54:29.709Z,98798.00
2022-10-31T21:57:01.579Z,98791.00
2022-10-31T21:59:31.771Z,98788.00
2022-10-31T22:02:01.679Z,98781.00
2022-10-31T22:04:31.157Z,98799.00
2022-10-31T22:07:00.215Z,98799.00
2022-10-31T22:09:29.310Z,98804.00
2022-10-31T22:11:58.434Z,98802.00
2022-10-31T22:14:27.827Z,98810.00
2022-10-31T22:16:56.955Z,98809.00
2022-10-31T22:19:27.779Z,98814.00
2022-10-31T22:21:56.889Z,98814.00
2022-10-31T22:24:25.976Z,98809.00
2022-10-31T22:26:55.198Z,98816.00
2022-10-31T22:29:24.295Z,98819.00
2022-10-31T22:31:58.557Z,98816.00
2022-10-31T22:34:28.771Z,98820.00
2022-10-31T22:36:58.036Z,98824.00
2022-10-31T22:39:27.149Z,98821.00
2022-10-31T22:41:56.251Z,98833.00
2022-10-31T22:44:25.402Z,98826.00
2022-10-31T22:46:54.540Z,98825.00
2022-10-31T22:49:23.677Z,98831.00
2022-10-31T22:51:53.461Z,98832.00
2022-10-31T22:54:22.573Z,98832.00
2022-10-31T22:56:51.684Z,98835.00
2022-10-31T22:59:20.889Z,98844.00
2022-10-31T23:01:50.157Z,98842.00
2022-10-31T23:04:19.407Z,98845.00
2022-10-31T23:06:50.062Z,98854.00
2022-10-31T23:09:19.516Z,98846.00
2022-10-31T23:11:48.777Z,98854.00
2022-10-31T23:14:21.884Z,98859.00
2022-10-31T23:16:53.790Z,98851.00
2022-10-31T23:19:29.072Z,98865.00
2022-10-31T23:22:03.007Z,98867.00
2022-10-31T23:24:39.433Z,98864.00
2022-10-31T23:27:11.761Z,98866.00
2022-10-31T23:29:48.660Z,98867.00
2022-10-31T23:32:28.451Z,98866.00
2022-10-31T23:35:04.969Z,98869.00
2022-10-31T23:37:39.343Z,98873.00
2022-10-31T23:40:09.688Z,98874.00
2022-10-31T23:42:38.899Z,98869.00
2022-10-31T23:45:09.539Z,98883.00
2022-10-31T23:47:43.236Z,98885.00
2022-10-31T23:50:12.803Z,98884.00
2022-10-31T23:52:41.950Z,98883.00
2022-10-31T23:55:11.625Z,98896.00
2022-10-31T23:57:40.758Z,98894.00
